Time;durP1;ratioP1;P1;durP2;ratioP2;P2;SDS_P1;SDS_P2;PMS_P1;PMS_P2;Temp;Humidity;BMP_temperature;BMP_pressure;BME280_temperature;BME280_humidity;BME280_pressure;Samples;Min_cycle;Max_cycle;Signal;HPM_P1;HPM_P2
2022/09/17 05:18:56;;;;;;;;;;;23.00;99.90;;;;;;6002745;22;19924;-78
2022/09/17 05:21:25;;;;;;;;;;;23.00;99.90;;;;;;5018074;28;19977;-78
2022/09/17 05:23:51;;;;;;;;;;;23.00;99.90;;;;;;5020791;28;19932;-78
2022/09/17 05:26:18;;;;;;;;;;;23.00;99.90;;;;;;5020767;28;19932;-78
2022/09/17 05:28:45;;;;;;;;;;;23.00;99.90;;;;;;5018597;28;19925;-78
2022/09/17 05:31:12;;;;;;;;;;;23.00;99.90;;;;;;5017602;28;19968;-74
2022/09/17 05:33:39;;;;;;;;;;;23.00;99.90;;;;;;5017358;28;19932;-74
2022/09/17 05:36:06;;;;;;;;;;;23.00;99.90;;;;;;5017323;28;20008;-74
2022/09/17 05:38:34;;;;;;;;;;;23.00;99.90;;;;;;5017179;28;20016;-74
2022/09/17 05:41:04;;;;;;;;;;;22.90;99.90;;;;;;5018050;28;19926;-74
2022/09/17 05:43:30;;;;;;;;;;;23.00;99.90;;;;;;5017136;28;19932;-74
2022/09/17 05:46:00;;;;;;;;;;;23.00;99.90;;;;;;5017047;28;20012;-74
2022/09/17 05:48:27;;;;;;;;;;;23.00;99.90;;;;;;5017014;28;19925;-74
2022/09/17 05:50:54;;;;;;;;;;;23.00;99.90;;;;;;5015761;28;19964;-74
2022/09/17 05:53:21;;;;;;;;;;;23.00;99.90;;;;;;5017024;28;20288;-74
2022/09/17 05:55:49;;;;;;;;;;;22.90;99.90;;;;;;5016994;28;20325;-74
2022/09/17 05:58:17;;;;;;;;;;;23.00;99.90;;;;;;5016874;28;19926;-75
2022/09/17 06:00:45;;;;;;;;;;;23.00;99.90;;;;;;5016518;28;20304;-74
2022/09/17 06:03:12;;;;;;;;;;;23.00;99.90;;;;;;5016772;28;19926;-73
2022/09/17 06:05:39;;;;;;;;;;;23.00;99.90;;;;;;5016703;28;20016;-73
2022/09/17 06:08:05;;;;;;;;;;;23.00;99.90;;;;;;5017362;28;19931;-77
2022/09/17 06:10:32;;;;;;;;;;;23.00;99.90;;;;;;5016320;28;19975;-77
2022/09/17 06:13:00;;;;;;;;;;;23.00;99.90;;;;;;5016620;28;19925;-77
2022/09/17 06:15:27;;;;;;;;;;;23.00;99.90;;;;;;5016561;28;19931;-78
2022/09/17 06:17:54;;;;;;;;;;;23.00;99.90;;;;;;5016493;28;19925;-78
2022/09/17 06:20:21;;;;;;;;;;;23.00;99.90;;;;;;5016168;28;19925;-77
2022/09/17 06:22:47;;;;;;;;;;;23.00;99.90;;;;;;5016436;28;19947;-77
2022/09/17 06:25:14;;;;;;;;;;;23.00;99.90;;;;;;5016422;28;20346;-77
2022/09/17 06:27:41;;;;;;;;;;;23.00;99.90;;;;;;5016276;28;19926;-77
2022/09/17 06:30:09;;;;;;;;;;;23.00;99.90;;;;;;5016239;28;20020;-78
2022/09/17 06:32:36;;;;;;;;;;;23.00;99.90;;;;;;5016288;28;19925;-78
2022/09/17 06:35:03;;;;;;;;;;;23.00;99.90;;;;;;5016197;28;20025;-78
2022/09/17 06:37:30;;;;;;;;;;;23.00;99.90;;;;;;5016153;28;19972;-78
2022/09/17 06:39:58;;;;;;;;;;;23.00;99.90;;;;;;5015761;28;20008;-77
2022/09/17 06:42:25;;;;;;;;;;;23.00;99.90;;;;;;5015742;28;19975;-77
2022/09/17 06:44:51;;;;;;;;;;;23.00;99.90;;;;;;5015697;28;20389;-77
2022/09/17 06:47:19;;;;;;;;;;;23.00;99.90;;;;;;5015866;28;20292;-77
2022/09/17 06:49:46;;;;;;;;;;;23.00;99.90;;;;;;5015829;28;19925;-77
2022/09/17 06:52:13;;;;;;;;;;;23.00;99.90;;;;;;5015523;28;20301;-77
2022/09/17 06:54:39;;;;;;;;;;;23.00;99.90;;;;;;5016557;28;20468;-78
2022/09/17 06:57:06;;;;;;;;;;;23.00;99.90;;;;;;5017646;28;20019;-77
2022/09/17 06:59:33;;;;;;;;;;;23.00;99.90;;;;;;5018323;28;19936;-77
2022/09/17 07:01:59;;;;;;;;;;;23.00;99.90;;;;;;5018018;28;20013;-78
2022/09/17 07:04:27;;;;;;;;;;;23.00;99.90;;;;;;5017028;28;19948;-77
2022/09/17 07:06:54;;;;;;;;;;;23.00;99.90;;;;;;5016668;28;19933;-77
2022/09/17 07:09:21;;;;;;;;;;;23.00;99.90;;;;;;5018305;28;19972;-78
2022/09/17 07:11:47;;;;;;;;;;;23.00;99.90;;;;;;5016330;28;19926;-78
2022/09/17 07:14:14;;;;;;;;;;;23.00;99.90;;;;;;5017388;28;19925;-79
2022/09/17 07:16:41;;;;;;;;;;;23.00;99.90;;;;;;5021328;28;19965;-80
2022/09/17 07:19:07;;;;;;;;;;;23.00;99.90;;;;;;5021454;28;20333;-79
2022/09/17 07:21:35;;;;;;;;;;;23.00;99.90;;;;;;5020266;28;19926;-79
2022/09/17 07:24:02;;;;;;;;;;;23.00;99.90;;;;;;5019283;28;20032;-80
2022/09/17 07:26:29;;;;;;;;;;;22.90;99.90;;;;;;5020785;28;20012;-88
2022/09/17 07:28:55;;;;;;;;;;;22.90;99.90;;;;;;5019893;28;19932;-80
2022/09/17 07:31:22;;;;;;;;;;;22.90;99.90;;;;;;5020018;28;19965;-80
2022/09/17 07:33:49;;;;;;;;;;;22.90;99.90;;;;;;5019699;28;20012;-80
2022/09/17 07:36:16;;;;;;;;;;;22.90;99.90;;;;;;5021590;28;19926;-82
2022/09/17 07:38:44;;;;;;;;;;;22.90;99.90;;;;;;5022528;28;19925;-80
2022/09/17 07:41:13;;;;;;;;;;;22.90;99.90;;;;;;5022535;28;19983;-81
2022/09/17 07:43:40;;;;;;;;;;;22.90;99.90;;;;;;5023176;28;19932;-80
2022/09/17 07:46:07;;;;;;;;;;;22.90;99.90;;;;;;5022481;28;19989;-81
2022/09/17 07:48:34;;;;;;;;;;;22.80;99.90;;;;;;5025376;28;20381;-80
2022/09/17 07:51:00;;;;;;;;;;;22.70;99.90;;;;;;5022934;28;20385;-81
2022/09/17 07:53:27;;;;;;;;;;;22.70;99.90;;;;;;5018548;28;20004;-81
2022/09/17 07:55:56;;;;;;;;;;;22.70;99.90;;;;;;5017357;28;19925;-82
2022/09/17 07:58:23;;;;;;;;;;;22.70;99.90;;;;;;5016766;28;20363;-85
2022/09/17 08:00:50;;;;;;;;;;;22.60;99.90;;;;;;5016108;28;19926;-84
2022/09/17 08:03:17;;;;;;;;;;;22.60;99.90;;;;;;5020982;28;19925;-85
2022/09/17 08:05:44;;;;;;;;;;;22.60;99.90;;;;;;5019335;28;20020;-83
2022/09/17 08:08:10;;;;;;;;;;;22.60;99.90;;;;;;5019055;28;19926;-82
2022/09/17 08:10:37;;;;;;;;;;;22.60;99.90;;;;;;5020938;28;19972;-83
2022/09/17 08:13:05;;;;;;;;;;;22.60;99.90;;;;;;5017554;28;19936;-82
2022/09/17 08:15:32;;;;;;;;;;;22.50;99.90;;;;;;5017543;28;20008;-83
2022/09/17 08:17:59;;;;;;;;;;;22.50;99.80;;;;;;5016362;28;19926;-84
2022/09/17 08:20:26;;;;;;;;;;;22.40;98.90;;;;;;5016326;28;20381;-83
2022/09/17 08:22:58;;;;;;;;;;;22.40;98.50;;;;;;5017543;28;19979;-81
2022/09/17 08:25:24;;;;;;;;;;;22.40;98.10;;;;;;5017399;28;20035;-82
2022/09/17 08:27:53;;;;;;;;;;;22.40;97.70;;;;;;5017775;28;19965;-81
2022/09/17 08:30:21;;;;;;;;;;;22.40;97.30;;;;;;5017980;28;20033;-82
2022/09/17 08:32:47;;;;;;;;;;;22.40;97.00;;;;;;5018385;28;19925;-82
2022/09/17 08:35:16;;;;;;;;;;;22.50;96.50;;;;;;5020316;28;19983;-81
2022/09/17 08:37:43;;;;;;;;;;;22.50;96.40;;;;;;5020167;28;19925;-81
2022/09/17 08:40:13;;;;;;;;;;;22.50;96.10;;;;;;5020258;28;19925;-82
2022/09/17 08:42:45;;;;;;;;;;;22.50;95.70;;;;;;5019676;28;20412;-80
2022/09/17 08:45:15;;;;;;;;;;;22.50;95.50;;;;;;5017423;28;19925;-81
2022/09/17 08:47:43;;;;;;;;;;;22.50;95.20;;;;;;5018220;28;19926;-82
2022/09/17 08:50:14;;;;;;;;;;;22.50;95.10;;;;;;5017502;28;19926;-83
2022/09/17 08:52:55;;;;;;;;;;;22.60;94.80;;;;;;5017908;28;19925;-81
2022/09/17 08:55:32;;;;;;;;;;;22.60;94.60;;;;;;5018289;28;19926;-80
2022/09/17 08:58:04;;;;;;;;;;;22.60;94.40;;;;;;5019077;28;19925;-80
2022/09/17 09:00:33;;;;;;;;;;;22.60;94.10;;;;;;5016472;28;19926;-80
2022/09/17 09:03:07;;;;;;;;;;;22.60;94.00;;;;;;5016161;28;20020;-81
2022/09/17 09:05:40;;;;;;;;;;;22.60;93.80;;;;;;5015404;28;19996;-78
2022/09/17 09:08:13;;;;;;;;;;;22.60;93.60;;;;;;5016934;28;19969;-78
2022/09/17 09:10:44;;;;;;;;;;;22.60;93.40;;;;;;5015221;28;19932;-76
2022/09/17 09:13:13;;;;;;;;;;;22.60;93.20;;;;;;5017056;28;19926;-75
2022/09/17 09:15:42;;;;;;;;;;;22.60;93.00;;;;;;5019504;28;19931;-75
2022/09/17 09:18:15;;;;;;;;;;;22.60;92.90;;;;;;5020852;28;19925;-75
2022/09/17 09:20:46;;;;;;;;;;;22.60;92.80;;;;;;5019438;28;20353;-76
2022/09/17 09:23:17;;;;;;;;;;;22.70;92.70;;;;;;5014976;28;19931;-78
2022/09/17 09:25:52;;;;;;;;;;;22.70;92.60;;;;;;5017145;28;19972;-75
2022/09/17 09:28:26;;;;;;;;;;;22.70;92.40;;;;;;5020146;28;20026;-75
2022/09/17 09:30:59;;;;;;;;;;;22.70;92.30;;;;;;5022500;28;19925;-77
2022/09/17 09:33:30;;;;;;;;;;;22.80;92.30;;;;;;5024618;28;19926;-74
2022/09/17 09:35:57;;;;;;;;;;;22.80;92.20;;;;;;5024610;28;19948;-76
2022/09/17 09:38:29;;;;;;;;;;;22.80;92.10;;;;;;5023998;28;19953;-83
2022/09/17 09:41:00;;;;;;;;;;;22.80;92.00;;;;;;5023907;28;20012;-78
2022/09/17 09:43:32;;;;;;;;;;;22.80;91.90;;;;;;5021966;28;19926;-76
2022/09/17 09:46:08;;;;;;;;;;;22.80;91.70;;;;;;5022316;28;19965;-77
2022/09/17 09:48:44;;;;;;;;;;;22.90;91.70;;;;;;5022870;28;20396;-76
2022/09/17 09:51:18;;;;;;;;;;;22.90;91.70;;;;;;5022991;28;19925;-77
2022/09/17 09:53:51;;;;;;;;;;;22.90;91.70;;;;;;5023448;28;19976;-77
2022/09/17 09:56:28;;;;;;;;;;;22.90;91.60;;;;;;5022272;28;19972;-75
2022/09/17 09:58:55;;;;;;;;;;;22.80;91.40;;;;;;5022501;28;19932;-78
2022/09/17 10:01:21;;;;;;;;;;;22.90;91.30;;;;;;5022470;28;19929;-76
2022/09/17 10:03:52;;;;;;;;;;;22.80;91.10;;;;;;5023179;28;19925;-76
2022/09/17 10:06:22;;;;;;;;;;;22.90;91.10;;;;;;5023408;28;20411;-77
2022/09/17 10:09:04;;;;;;;;;;;22.90;90.90;;;;;;5022630;28;19975;-77
2022/09/17 10:11:32;;;;;;;;;;;22.90;90.90;;;;;;5022909;28;20019;-77
2022/09/17 10:14:14;;;;;;;;;;;22.80;90.70;;;;;;5022639;28;20372;-77
2022/09/17 10:16:41;;;;;;;;;;;22.90;90.60;;;;;;5022202;28;19925;-78
2022/09/17 10:19:14;;;;;;;;;;;22.90;90.50;;;;;;5023143;28;19925;-77
2022/09/17 10:21:42;;;;;;;;;;;22.90;90.40;;;;;;5022407;28;20465;-77
2022/09/17 10:24:15;;;;;;;;;;;22.90;90.30;;;;;;5022548;28;19933;-76
2022/09/17 10:26:42;;;;;;;;;;;22.90;90.20;;;;;;5022401;28;20301;-75
2022/09/17 10:29:13;;;;;;;;;;;22.90;90.10;;;;;;5021806;28;19979;-75
2022/09/17 10:31:50;;;;;;;;;;;22.90;90.10;;;;;;5021158;28;19948;-75
2022/09/17 10:34:22;;;;;;;;;;;22.90;89.90;;;;;;5020929;28;19936;-74
2022/09/17 10:36:50;;;;;;;;;;;22.80;89.60;;;;;;5021685;28;19925;-74
2022/09/17 10:39:29;;;;;;;;;;;22.80;89.50;;;;;;5022973;28;19929;-75
2022/09/17 10:41:56;;;;;;;;;;;22.90;89.30;;;;;;5024340;28;19932;-75
2022/09/17 10:44:24;;;;;;;;;;;22.90;89.10;;;;;;5024059;28;19932;-77
2022/09/17 10:46:52;;;;;;;;;;;22.90;89.70;;;;;;5020685;28;19930;-75
2022/09/17 10:49:28;;;;;;;;;;;22.90;88.90;;;;;;5020564;28;19925;-74
2022/09/17 10:52:03;;;;;;;;;;;22.90;88.80;;;;;;5020718;28;20376;-75
2022/09/17 10:54:41;;;;;;;;;;;22.90;88.60;;;;;;5018656;28;19932;-77
2022/09/17 10:57:09;;;;;;;;;;;22.90;89.30;;;;;;5015968;28;20333;-77
2022/09/17 10:59:47;;;;;;;;;;;22.90;88.30;;;;;;5016902;28;20451;-79
2022/09/17 11:02:31;;;;;;;;;;;22.90;88.30;;;;;;5017066;28;19926;-78
2022/09/17 11:05:04;;;;;;;;;;;22.90;88.30;;;;;;5015797;28;19929;-78
2022/09/17 11:07:34;;;;;;;;;;;22.90;88.30;;;;;;5016862;28;19925;-77
2022/09/17 11:10:08;;;;;;;;;;;22.90;88.30;;;;;;5018628;28;19925;-77
2022/09/17 11:12:40;;;;;;;;;;;22.90;88.30;;;;;;5018844;28;19925;-75
2022/09/17 11:15:14;;;;;;;;;;;22.90;88.20;;;;;;5017401;28;20365;-74
2022/09/17 11:17:52;;;;;;;;;;;22.90;88.00;;;;;;5015589;28;19925;-75
2022/09/17 11:20:30;;;;;;;;;;;22.90;87.90;;;;;;5015818;28;20012;-76
2022/09/17 11:23:02;;;;;;;;;;;22.90;87.70;;;;;;5018585;28;19936;-76
2022/09/17 11:25:34;;;;;;;;;;;22.90;87.60;;;;;;5018442;28;19925;-78
2022/09/17 11:28:06;;;;;;;;;;;22.90;87.40;;;;;;5017002;28;20020;-77
2022/09/17 11:30:35;;;;;;;;;;;22.90;87.40;;;;;;5016547;28;19926;-79
2022/09/17 11:33:12;;;;;;;;;;;22.90;87.30;;;;;;5017871;28;19965;-77
2022/09/17 11:35:41;;;;;;;;;;;22.90;87.10;;;;;;5017715;28;20289;-77
2022/09/17 11:38:11;;;;;;;;;;;22.90;87.00;;;;;;5018417;28;19965;-76
2022/09/17 11:40:40;;;;;;;;;;;22.90;86.90;;;;;;5016591;28;19979;-77
2022/09/17 11:43:13;;;;;;;;;;;22.90;86.90;;;;;;5017589;28;19929;-78
2022/09/17 11:45:41;;;;;;;;;;;23.00;86.90;;;;;;5015887;28;19925;-78
2022/09/17 11:48:12;;;;;;;;;;;22.90;86.80;;;;;;5017140;28;20028;-76
2022/09/17 11:50:44;;;;;;;;;;;23.00;86.80;;;;;;5017312;28;20363;-75
2022/09/17 11:53:15;;;;;;;;;;;23.00;86.80;;;;;;5014954;28;19948;-77
2022/09/17 11:55:46;;;;;;;;;;;23.00;86.80;;;;;;5014859;28;20012;-76
2022/09/17 11:58:14;;;;;;;;;;;23.00;86.70;;;;;;5014838;28;20319;-77
2022/09/17 12:00:45;;;;;;;;;;;23.00;86.40;;;;;;5014922;28;19932;-77
2022/09/17 12:03:15;;;;;;;;;;;23.00;86.20;;;;;;5014971;28;19932;-77
2022/09/17 12:05:46;;;;;;;;;;;22.90;85.90;;;;;;5014881;28;20020;-77
2022/09/17 12:08:16;;;;;;;;;;;22.90;85.60;;;;;;5016771;28;19925;-78
2022/09/17 12:10:45;;;;;;;;;;;22.90;85.30;;;;;;5017845;28;19931;-76
2022/09/17 12:13:16;;;;;;;;;;;22.90;85.00;;;;;;5021660;28;19932;-76
2022/09/17 12:15:45;;;;;;;;;;;22.90;84.80;;;;;;5023471;28;19969;-78
2022/09/17 12:18:19;;;;;;;;;;;22.90;84.50;;;;;;5020454;28;19929;-75
2022/09/17 12:20:48;;;;;;;;;;;22.90;84.30;;;;;;5014382;28;20016;-76
2022/09/17 12:23:18;;;;;;;;;;;22.90;84.10;;;;;;5014370;28;20012;-76
2022/09/17 12:25:47;;;;;;;;;;;22.90;83.80;;;;;;5014374;28;20023;-76
2022/09/17 12:28:17;;;;;;;;;;;22.90;83.40;;;;;;5014201;28;19972;-76
2022/09/17 12:30:47;;;;;;;;;;;22.90;83.20;;;;;;5014308;28;19931;-76
2022/09/17 12:33:19;;;;;;;;;;;22.90;82.70;;;;;;5014309;28;20019;-76
2022/09/17 12:36:00;;;;;;;;;;;22.90;82.60;;;;;;5014310;28;19955;-75
2022/09/17 12:38:41;;;;;;;;;;;22.90;82.60;;;;;;5011650;28;19926;-76
2022/09/17 12:41:12;;;;;;;;;;;22.90;82.60;;;;;;5019680;28;19925;-76
2022/09/17 12:43:47;;;;;;;;;;;22.90;82.10;;;;;;5022502;28;19925;-81
2022/09/17 12:46:22;;;;;;;;;;;22.90;81.80;;;;;;5021842;28;20398;-75
2022/09/17 12:48:58;;;;;;;;;;;22.90;81.60;;;;;;5019856;28;19932;-76
2022/09/17 12:51:35;;;;;;;;;;;22.90;81.40;;;;;;5021855;28;20012;-76
2022/09/17 12:54:11;;;;;;;;;;;22.90;81.20;;;;;;5023130;28;19933;-75
2022/09/17 12:56:47;;;;;;;;;;;22.90;80.90;;;;;;5023090;28;19932;-76
2022/09/17 12:59:18;;;;;;;;;;;22.90;80.70;;;;;;5023248;28;20380;-77
2022/09/17 13:01:48;;;;;;;;;;;23.00;80.60;;;;;;5026505;28;20276;-76
2022/09/17 13:04:23;;;;;;;;;;;23.00;80.50;;;;;;5025498;28;19926;-77
2022/09/17 13:07:05;;;;;;;;;;;23.00;80.30;;;;;;5025216;28;19926;-77
2022/09/17 13:09:44;;;;;;;;;;;23.00;80.20;;;;;;5024452;28;19932;-76
2022/09/17 13:12:18;;;;;;;;;;;23.00;80.00;;;;;;5023583;28;19950;-75
2022/09/17 13:15:06;;;;;;;;;;;23.00;79.70;;;;;;5024528;28;19926;-75
2022/09/17 13:17:38;;;;;;;;;;;23.00;79.60;;;;;;4994411;28;19925;-76
2022/09/17 13:20:11;;;;;;;;;;;23.00;79.30;;;;;;5018764;28;19975;-76
2022/09/17 13:22:44;;;;;;;;;;;23.00;79.20;;;;;;5020012;28;20006;-77
2022/09/17 13:25:14;;;;;;;;;;;23.00;79.10;;;;;;5021887;28;19941;-76
2022/09/17 13:27:41;;;;;;;;;;;23.00;79.00;;;;;;5025122;28;20332;-79
2022/09/17 13:30:09;;;;;;;;;;;23.00;78.80;;;;;;5022546;28;19925;-79
2022/09/17 13:32:57;;;;;;;;;;;23.00;78.70;;;;;;5023232;28;19925;-80
2022/09/17 13:35:42;;;;;;;;;;;23.00;78.50;;;;;;5017426;28;20460;-79
2022/09/17 13:38:09;;;;;;;;;;;23.00;78.30;;;;;;5022116;28;20296;-79
2022/09/17 13:40:37;;;;;;;;;;;23.00;78.10;;;;;;5021360;28;20403;-78
2022/09/17 13:43:08;;;;;;;;;;;23.00;78.00;;;;;;5021738;28;19926;-78
2022/09/17 13:45:54;;;;;;;;;;;23.00;78.00;;;;;;5021232;28;20377;-79
2022/09/17 13:48:23;;;;;;;;;;;23.00;77.80;;;;;;5021582;28;19931;-76
2022/09/17 13:50:51;;;;;;;;;;;23.00;77.70;;;;;;5021374;28;19936;-79
2022/09/17 13:53:20;;;;;;;;;;;23.00;77.60;;;;;;5025135;28;19926;-79
2022/09/17 13:55:49;;;;;;;;;;;23.00;77.60;;;;;;5022624;28;19949;-79
2022/09/17 13:58:22;;;;;;;;;;;23.00;77.50;;;;;;5021623;28;19964;-78
2022/09/17 14:00:50;;;;;;;;;;;23.00;77.50;;;;;;5021451;28;20020;-81
2022/09/17 14:03:36;;;;;;;;;;;23.00;77.40;;;;;;5021456;28;19926;-81
2022/09/17 14:06:19;;;;;;;;;;;23.00;77.40;;;;;;5021246;28;19926;-81
2022/09/17 14:08:48;;;;;;;;;;;23.10;77.40;;;;;;5021343;28;19976;-82
2022/09/17 14:11:31;;;;;;;;;;;23.10;77.40;;;;;;5019394;28;19988;-81
2022/09/17 14:14:15;;;;;;;;;;;23.10;77.40;;;;;;5020720;28;19949;-80
2022/09/17 14:16:46;;;;;;;;;;;23.10;77.40;;;;;;5021115;28;19989;-81
2022/09/17 14:19:31;;;;;;;;;;;23.10;77.40;;;;;;5022036;28;19925;-81
2022/09/17 14:21:59;;;;;;;;;;;23.10;77.50;;;;;;5021418;28;19926;-81
2022/09/17 14:24:27;;;;;;;;;;;23.10;77.50;;;;;;5020971;28;19961;-82
2022/09/17 14:27:00;;;;;;;;;;;23.10;77.50;;;;;;5021131;28;20353;-82
2022/09/17 14:29:33;;;;;;;;;;;23.10;77.50;;;;;;5020235;28;19925;-78
2022/09/17 14:32:00;;;;;;;;;;;23.10;77.60;;;;;;5020322;28;19929;-78
2022/09/17 14:34:27;;;;;;;;;;;23.20;77.70;;;;;;5019859;28;19961;-78
2022/09/17 14:36:54;;;;;;;;;;;23.10;77.70;;;;;;5020589;28;19926;-78
2022/09/17 14:39:22;;;;;;;;;;;23.10;77.70;;;;;;5020833;28;19926;-78
2022/09/17 14:41:49;;;;;;;;;;;23.10;77.80;;;;;;5020385;28;20012;-80
2022/09/17 14:44:18;;;;;;;;;;;23.10;77.80;;;;;;5020508;28;19925;-79
2022/09/17 14:46:50;;;;;;;;;;;23.20;78.00;;;;;;5020454;28;19932;-78
2022/09/17 14:49:20;;;;;;;;;;;23.20;78.10;;;;;;5018197;28;19925;-78
2022/09/17 14:51:46;;;;;;;;;;;23.20;78.20;;;;;;5018497;28;19925;-79
2022/09/17 14:54:18;;;;;;;;;;;23.20;78.20;;;;;;5020491;28;19926;-79
2022/09/17 14:56:48;;;;;;;;;;;23.20;78.20;;;;;;5020988;28;20001;-79
2022/09/17 14:59:19;;;;;;;;;;;23.20;78.20;;;;;;5022328;28;19925;-81
2022/09/17 15:01:47;;;;;;;;;;;23.20;78.30;;;;;;5027479;28;20020;-80
2022/09/17 15:04:21;;;;;;;;;;;23.10;78.20;;;;;;5022330;28;20012;-80
2022/09/17 15:06:48;;;;;;;;;;;23.10;78.10;;;;;;5025112;28;20380;-82
2022/09/17 15:09:16;;;;;;;;;;;23.10;78.10;;;;;;5018732;28;19925;-82
2022/09/17 15:11:44;;;;;;;;;;;23.10;78.00;;;;;;5017904;28;20020;-82
2022/09/17 15:14:15;;;;;;;;;;;23.10;78.00;;;;;;5021012;28;19929;-82
2022/09/17 15:16:48;;;;;;;;;;;23.10;78.00;;;;;;5021636;28;20381;-82
2022/09/17 15:19:18;;;;;;;;;;;23.10;78.00;;;;;;5021251;28;19925;-82
2022/09/17 15:21:48;;;;;;;;;;;23.10;77.90;;;;;;5021041;28;19985;-82
2022/09/17 15:24:17;;;;;;;;;;;23.10;77.90;;;;;;5020858;28;19952;-82
2022/09/17 15:26:45;;;;;;;;;;;23.10;77.90;;;;;;5020884;28;20012;-81
2022/09/17 15:29:12;;;;;;;;;;;23.10;77.80;;;;;;5021013;28;19968;-81
2022/09/17 15:31:39;;;;;;;;;;;23.10;77.80;;;;;;5020647;28;20365;-81
2022/09/17 15:34:10;;;;;;;;;;;23.10;77.80;;;;;;5020565;28;20285;-82
2022/09/17 15:36:37;;;;;;;;;;;23.10;77.80;;;;;;5020815;28;19926;-81
2022/09/17 15:39:29;;;;;;;;;;;23.00;77.60;;;;;;5021340;28;19925;-81
2022/09/17 15:41:56;;;;;;;;;;;23.00;77.60;;;;;;5020934;28;20412;-82
2022/09/17 15:44:24;;;;;;;;;;;23.00;77.60;;;;;;5020354;28;19925;-82
2022/09/17 15:46:51;;;;;;;;;;;23.00;77.60;;;;;;5020572;28;19925;-82
2022/09/17 15:49:29;;;;;;;;;;;23.00;77.60;;;;;;5020149;28;19926;-82
2022/09/17 15:52:11;;;;;;;;;;;23.00;77.60;;;;;;5020029;28;20020;-82
2022/09/17 15:54:38;;;;;;;;;;;23.00;77.60;;;;;;5019740;28;19931;-82
2022/09/17 15:57:04;;;;;;;;;;;23.00;77.60;;;;;;5019788;28;19979;-81
2022/09/17 15:59:33;;;;;;;;;;;23.00;77.60;;;;;;5019877;28;20270;-82
2022/09/17 16:02:01;;;;;;;;;;;23.00;77.60;;;;;;5019948;28;20333;-82
2022/09/17 16:04:32;;;;;;;;;;;23.00;77.60;;;;;;5019698;28;19925;-82
2022/09/17 16:07:01;;;;;;;;;;;23.00;77.50;;;;;;5019672;28;19926;-82
2022/09/17 16:09:41;;;;;;;;;;;23.00;77.60;;;;;;5018378;28;19980;-82
2022/09/17 16:12:10;;;;;;;;;;;23.00;77.60;;;;;;5019865;28;20031;-82
2022/09/17 16:14:37;;;;;;;;;;;23.00;77.60;;;;;;5019524;28;20012;-82
2022/09/17 16:17:20;;;;;;;;;;;23.00;77.60;;;;;;5019489;28;19926;-82
2022/09/17 16:19:48;;;;;;;;;;;23.00;77.50;;;;;;5018986;28;19989;-82
2022/09/17 16:22:14;;;;;;;;;;;23.00;77.60;;;;;;5019227;28;19925;-82
2022/09/17 16:24:41;;;;;;;;;;;23.00;77.50;;;;;;5019405;28;19980;-82
2022/09/17 16:27:12;;;;;;;;;;;23.00;77.60;;;;;;5019223;28;19933;-82
2022/09/17 16:29:39;;;;;;;;;;;23.00;77.60;;;;;;5018686;28;19925;-82
2022/09/17 16:32:06;;;;;;;;;;;22.90;77.40;;;;;;5019837;28;19925;-82
2022/09/17 16:34:32;;;;;;;;;;;23.00;77.60;;;;;;5019756;28;19948;-82
2022/09/17 16:37:01;;;;;;;;;;;22.90;77.40;;;;;;5019628;28;19960;-82
2022/09/17 16:39:27;;;;;;;;;;;23.00;77.60;;;;;;5019582;28;19929;-82
2022/09/17 16:41:54;;;;;;;;;;;23.00;77.60;;;;;;5018838;28;19975;-82
2022/09/17 16:44:21;;;;;;;;;;;22.90;77.40;;;;;;5019040;28;20020;-82
2022/09/17 16:46:47;;;;;;;;;;;22.90;77.40;;;;;;5019153;28;19972;-82
2022/09/17 16:49:14;;;;;;;;;;;22.90;77.40;;;;;;5018905;28;19965;-82
2022/09/17 16:51:41;;;;;;;;;;;22.90;77.50;;;;;;5019118;28;19944;-82
2022/09/17 16:54:09;;;;;;;;;;;22.90;77.40;;;;;;5019360;28;19932;-82
2022/09/17 16:56:36;;;;;;;;;;;22.90;77.50;;;;;;5019321;28;19932;-82
2022/09/17 16:59:02;;;;;;;;;;;22.90;77.50;;;;;;5019654;28;20012;-82
2022/09/17 17:01:29;;;;;;;;;;;22.90;77.40;;;;;;5018573;28;20321;-82
2022/09/17 17:03:58;;;;;;;;;;;22.90;77.50;;;;;;5018631;28;19954;-82
2022/09/17 17:06:25;;;;;;;;;;;22.90;77.50;;;;;;5018739;28;19976;-82
2022/09/17 17:08:51;;;;;;;;;;;22.90;77.50;;;;;;5018460;28;19935;-82
2022/09/17 17:11:19;;;;;;;;;;;22.90;77.50;;;;;;5017742;28;19988;-82
2022/09/17 17:13:46;;;;;;;;;;;22.90;77.60;;;;;;5018879;28;20020;-82
2022/09/17 17:16:14;;;;;;;;;;;22.90;77.50;;;;;;5018248;28;20008;-83
2022/09/17 17:18:41;;;;;;;;;;;22.90;77.50;;;;;;5017977;28;20008;-82
2022/09/17 17:21:09;;;;;;;;;;;22.90;77.60;;;;;;5017991;28;19977;-82
2022/09/17 17:23:36;;;;;;;;;;;22.90;77.60;;;;;;5017995;28;19989;-82
2022/09/17 17:26:03;;;;;;;;;;;22.90;77.60;;;;;;5017569;28;19925;-82
2022/09/17 17:28:33;;;;;;;;;;;22.90;77.60;;;;;;5016851;28;19987;-82
2022/09/17 17:31:00;;;;;;;;;;;22.90;77.60;;;;;;5017346;28;20336;-83
2022/09/17 17:33:27;;;;;;;;;;;22.90;77.60;;;;;;5018450;28;20020;-83
2022/09/17 17:35:53;;;;;;;;;;;22.90;77.60;;;;;;5017369;28;19989;-83
2022/09/17 17:38:20;;;;;;;;;;;22.90;77.70;;;;;;5018765;28;19925;-83
2022/09/17 17:40:47;;;;;;;;;;;22.90;77.60;;;;;;5020107;28;20303;-83
2022/09/17 17:43:13;;;;;;;;;;;22.90;77.70;;;;;;5019835;28;19925;-83
2022/09/17 17:45:41;;;;;;;;;;;22.90;77.70;;;;;;5019529;28;19981;-83
2022/09/17 17:48:08;;;;;;;;;;;22.90;77.70;;;;;;5019277;28;19931;-84
2022/09/17 17:50:35;;;;;;;;;;;22.80;77.70;;;;;;5021728;28;20020;-84
2022/09/17 17:53:01;;;;;;;;;;;22.80;77.60;;;;;;5021072;28;19935;-84
2022/09/17 17:55:28;;;;;;;;;;;22.80;77.70;;;;;;5019768;28;20019;-84
2022/09/17 17:57:56;;;;;;;;;;;22.80;77.70;;;;;;5020388;28;20361;-84
2022/09/17 18:00:23;;;;;;;;;;;22.80;77.70;;;;;;5019815;28;19926;-84
2022/09/17 18:02:51;;;;;;;;;;;22.80;77.70;;;;;;5019173;28;20352;-85
2022/09/17 18:05:18;;;;;;;;;;;22.80;77.70;;;;;;5021163;28;20016;-84
2022/09/17 18:07:44;;;;;;;;;;;22.80;77.70;;;;;;5022376;28;19933;-84
2022/09/17 18:10:11;;;;;;;;;;;22.80;77.80;;;;;;5022834;28;20468;-84
2022/09/17 18:12:38;;;;;;;;;;;22.80;77.80;;;;;;5021328;28;20329;-83
2022/09/17 18:15:05;;;;;;;;;;;22.80;77.80;;;;;;5021934;28;19968;-83
2022/09/17 18:17:34;;;;;;;;;;;22.80;77.80;;;;;;5022973;28;20024;-83
2022/09/17 18:20:03;;;;;;;;;;;22.80;77.80;;;;;;5020577;28;20381;-83
2022/09/17 18:22:30;;;;;;;;;;;22.80;77.80;;;;;;5020805;28;20013;-83
2022/09/17 18:24:57;;;;;;;;;;;22.80;77.80;;;;;;5020484;28;19980;-83
2022/09/17 18:27:24;;;;;;;;;;;22.70;77.70;;;;;;5019766;28;19925;-83
2022/09/17 18:29:50;;;;;;;;;;;22.80;77.80;;;;;;5018563;28;20028;-84
2022/09/17 18:32:17;;;;;;;;;;;22.80;77.80;;;;;;5017324;28;19972;-85
2022/09/17 18:34:43;;;;;;;;;;;22.80;77.90;;;;;;5016675;28;19971;-84
2022/09/17 18:37:11;;;;;;;;;;;22.80;77.90;;;;;;5016866;28;20025;-84
2022/09/17 18:39:38;;;;;;;;;;;22.80;77.90;;;;;;5016281;28;20395;-84
2022/09/17 18:42:05;;;;;;;;;;;22.80;77.90;;;;;;5016862;28;20300;-84
2022/09/17 18:44:31;;;;;;;;;;;22.70;77.90;;;;;;5016402;28;20020;-84
2022/09/17 18:46:58;;;;;;;;;;;22.70;77.90;;;;;;5016304;28;20296;-84
2022/09/17 18:49:25;;;;;;;;;;;22.80;78.00;;;;;;5016321;28;20360;-85
2022/09/17 18:51:51;;;;;;;;;;;22.70;77.90;;;;;;5016212;28;20041;-85
2022/09/17 18:54:19;;;;;;;;;;;22.70;78.00;;;;;;5016236;28;19969;-85
2022/09/17 18:56:46;;;;;;;;;;;22.70;78.00;;;;;;5015905;28;19925;-85
2022/09/17 18:59:13;;;;;;;;;;;22.70;77.90;;;;;;5015822;28;19926;-85
2022/09/17 19:01:39;;;;;;;;;;;22.70;78.00;;;;;;5016824;28;19925;-85
2022/09/17 19:04:07;;;;;;;;;;;22.70;78.00;;;;;;5016055;28;19931;-85
2022/09/17 19:06:33;;;;;;;;;;;22.70;78.00;;;;;;5015918;28;19932;-85
2022/09/17 19:09:00;;;;;;;;;;;22.70;78.00;;;;;;5015878;28;19926;-85
2022/09/17 19:11:30;;;;;;;;;;;22.70;78.00;;;;;;5014995;28;21442;-85
2022/09/17 19:13:57;;;;;;;;;;;22.70;78.00;;;;;;5018609;28;20312;-83
2022/09/17 19:16:24;;;;;;;;;;;22.70;78.00;;;;;;5018046;28;19925;-84
2022/09/17 19:18:52;;;;;;;;;;;22.70;78.00;;;;;;5017047;28;19931;-84
2022/09/17 19:21:20;;;;;;;;;;;22.70;78.10;;;;;;5018419;28;20012;-83
2022/09/17 19:23:48;;;;;;;;;;;22.70;78.10;;;;;;5020710;28;20016;-83
2022/09/17 19:26:15;;;;;;;;;;;22.70;78.00;;;;;;5016772;28;19971;-85
2022/09/17 19:28:43;;;;;;;;;;;22.70;78.80;;;;;;5016269;28;19932;-84
2022/09/17 19:31:11;;;;;;;;;;;22.70;78.00;;;;;;5016491;28;19925;-85
2022/09/17 19:33:38;;;;;;;;;;;22.70;78.10;;;;;;5016290;28;19972;-85
2022/09/17 19:36:05;;;;;;;;;;;22.70;78.00;;;;;;5016166;28;19932;-85
2022/09/17 19:38:32;;;;;;;;;;;22.70;78.00;;;;;;5015654;28;19926;-86
2022/09/17 19:41:01;;;;;;;;;;;22.70;77.90;;;;;;5015216;28;19932;-86
2022/09/17 19:43:28;;;;;;;;;;;22.70;77.90;;;;;;5015209;28;19931;-86
2022/09/17 19:46:01;;;;;;;;;;;22.70;77.90;;;;;;5015542;28;19968;-86
2022/09/17 19:48:28;;;;;;;;;;;22.70;77.90;;;;;;5017601;28;19925;-85